sensor_id;sensor_type;location;lat;lon;timestamp;P1;durP1;ratioP1;P2;durP2;ratioP2
16820;SDS011;8527;49.740;6.604;2024-01-25T00:04:16;21.42;;;3.80;;
16820;SDS011;8527;49.740;6.604;2024-01-25T00:09:17;18.60;;;3.78;;
16820;SDS011;8527;49.740;6.604;2024-01-25T00:14:17;21.60;;;4.18;;
16820;SDS011;8527;49.740;6.604;2024-01-25T00:19:16;19.52;;;3.72;;
16820;SDS011;8527;49.740;6.604;2024-01-25T00:24:16;20.98;;;4.22;;
16820;SDS011;8527;49.740;6.604;2024-01-25T00:29:15;13.40;;;2.92;;
16820;SDS011;8527;49.740;6.604;2024-01-25T00:34:14;15.32;;;3.25;;
16820;SDS011;8527;49.740;6.604;2024-01-25T00:39:22;21.35;;;3.58;;
16820;SDS011;8527;49.740;6.604;2024-01-25T00:44:21;19.35;;;3.92;;
16820;SDS011;8527;49.740;6.604;2024-01-25T00:49:20;19.65;;;3.50;;
16820;SDS011;8527;49.740;6.604;2024-01-25T00:54:22;22.85;;;3.78;;
16820;SDS011;8527;49.740;6.604;2024-01-25T00:59:27;17.23;;;3.05;;
16820;SDS011;8527;49.740;6.604;2024-01-25T01:04:26;15.32;;;3.53;;
16820;SDS011;8527;49.740;6.604;2024-01-25T01:09:28;17.85;;;3.75;;
16820;SDS011;8527;49.740;6.604;2024-01-25T01:14:26;15.95;;;2.90;;
16820;SDS011;8527;49.740;6.604;2024-01-25T01:19:28;13.32;;;3.00;;
16820;SDS011;8527;49.740;6.604;2024-01-25T01:24:29;13.68;;;3.03;;
16820;SDS011;8527;49.740;6.604;2024-01-25T01:29:27;21.45;;;3.88;;
16820;SDS011;8527;49.740;6.604;2024-01-25T01:34:25;22.98;;;3.88;;
16820;SDS011;8527;49.740;6.604;2024-01-25T01:39:29;12.70;;;3.03;;
16820;SDS011;8527;49.740;6.604;2024-01-25T01:44:30;22.13;;;3.85;;
16820;SDS011;8527;49.740;6.604;2024-01-25T01:49:28;13.52;;;3.00;;
16820;SDS011;8527;49.740;6.604;2024-01-25T01:54:33;14.38;;;2.85;;
16820;SDS011;8527;49.740;6.604;2024-01-25T01:59:32;18.30;;;3.13;;
16820;SDS011;8527;49.740;6.604;2024-01-25T02:04:33;17.52;;;3.47;;
16820;SDS011;8527;49.740;6.604;2024-01-25T02:09:37;15.82;;;3.30;;
16820;SDS011;8527;49.740;6.604;2024-01-25T02:14:35;16.45;;;3.28;;
16820;SDS011;8527;49.740;6.604;2024-01-25T02:19:34;18.05;;;3.55;;
16820;SDS011;8527;49.740;6.604;2024-01-25T02:24:38;17.02;;;3.40;;
16820;SDS011;8527;49.740;6.604;2024-01-25T02:29:36;17.15;;;3.80;;
16820;SDS011;8527;49.740;6.604;2024-01-25T02:34:37;18.38;;;3.47;;
16820;SDS011;8527;49.740;6.604;2024-01-25T02:39:41;15.77;;;3.22;;
16820;SDS011;8527;49.740;6.604;2024-01-25T02:44:40;19.80;;;3.95;;
16820;SDS011;8527;49.740;6.604;2024-01-25T02:49:39;14.48;;;3.22;;
16820;SDS011;8527;49.740;6.604;2024-01-25T02:54:45;20.17;;;3.00;;
16820;SDS011;8527;49.740;6.604;2024-01-25T02:59:44;19.67;;;3.08;;
16820;SDS011;8527;49.740;6.604;2024-01-25T03:04:45;19.52;;;2.97;;
16820;SDS011;8527;49.740;6.604;2024-01-25T03:09:46;19.52;;;3.95;;
16820;SDS011;8527;49.740;6.604;2024-01-25T03:14:47;19.30;;;3.42;;
16820;SDS011;8527;49.740;6.604;2024-01-25T03:19:46;14.52;;;3.10;;
16820;SDS011;8527;49.740;6.604;2024-01-25T03:24:47;20.88;;;3.30;;
16820;SDS011;8527;49.740;6.604;2024-01-25T03:29:48;16.35;;;3.63;;
16820;SDS011;8527;49.740;6.604;2024-01-25T03:34:47;21.13;;;3.53;;
16820;SDS011;8527;49.740;6.604;2024-01-25T03:39:48;17.60;;;3.25;;
16820;SDS011;8527;49.740;6.604;2024-01-25T03:44:46;15.75;;;3.35;;
16820;SDS011;8527;49.740;6.604;2024-01-25T03:49:45;16.08;;;3.15;;
16820;SDS011;8527;49.740;6.604;2024-01-25T03:54:43;17.80;;;2.70;;
16820;SDS011;8527;49.740;6.604;2024-01-25T03:59:44;19.92;;;3.63;;
16820;SDS011;8527;49.740;6.604;2024-01-25T04:04:42;15.98;;;3.15;;
16820;SDS011;8527;49.740;6.604;2024-01-25T04:09:41;16.80;;;2.75;;
16820;SDS011;8527;49.740;6.604;2024-01-25T04:14:45;13.95;;;3.22;;
16820;SDS011;8527;49.740;6.604;2024-01-25T04:19:46;18.92;;;3.00;;
16820;SDS011;8527;49.740;6.604;2024-01-25T04:24:45;19.63;;;3.55;;
16820;SDS011;8527;49.740;6.604;2024-01-25T04:29:47;19.60;;;3.70;;
16820;SDS011;8527;49.740;6.604;2024-01-25T04:34:46;17.95;;;3.75;;
16820;SDS011;8527;49.740;6.604;2024-01-25T04:39:44;24.35;;;4.18;;
16820;SDS011;8527;49.740;6.604;2024-01-25T04:44:54;18.93;;;3.43;;
16820;SDS011;8527;49.740;6.604;2024-01-25T04:49:52;18.98;;;3.65;;
16820;SDS011;8527;49.740;6.604;2024-01-25T04:54:54;19.02;;;3.00;;
16820;SDS011;8527;49.740;6.604;2024-01-25T04:59:55;16.35;;;3.15;;
16820;SDS011;8527;49.740;6.604;2024-01-25T05:05:03;13.73;;;3.00;;
16820;SDS011;8527;49.740;6.604;2024-01-25T05:10:02;16.10;;;3.45;;
16820;SDS011;8527;49.740;6.604;2024-01-25T05:15:04;18.77;;;3.58;;
16820;SDS011;8527;49.740;6.604;2024-01-25T05:20:08;13.40;;;3.20;;
16820;SDS011;8527;49.740;6.604;2024-01-25T05:25:08;15.30;;;2.90;;
16820;SDS011;8527;49.740;6.604;2024-01-25T05:30:10;12.13;;;2.88;;
16820;SDS011;8527;49.740;6.604;2024-01-25T05:35:09;18.92;;;4.35;;
16820;SDS011;8527;49.740;6.604;2024-01-25T05:40:08;16.33;;;3.05;;
16820;SDS011;8527;49.740;6.604;2024-01-25T05:45:10;14.73;;;3.30;;
16820;SDS011;8527;49.740;6.604;2024-01-25T05:50:15;13.88;;;2.78;;
16820;SDS011;8527;49.740;6.604;2024-01-25T05:55:14;14.88;;;2.88;;
16820;SDS011;8527;49.740;6.604;2024-01-25T06:00:15;12.48;;;3.22;;
16820;SDS011;8527;49.740;6.604;2024-01-25T06:05:14;21.77;;;3.78;;
16820;SDS011;8527;49.740;6.604;2024-01-25T06:10:13;19.23;;;3.30;;
16820;SDS011;8527;49.740;6.604;2024-01-25T06:15:15;21.10;;;3.67;;
16820;SDS011;8527;49.740;6.604;2024-01-25T06:20:16;9.57;;;3.08;;
16820;SDS011;8527;49.740;6.604;2024-01-25T06:25:15;15.50;;;3.65;;
16820;SDS011;8527;49.740;6.604;2024-01-25T06:30:17;13.00;;;3.97;;
16820;SDS011;8527;49.740;6.604;2024-01-25T06:35:20;14.83;;;3.70;;
16820;SDS011;8527;49.740;6.604;2024-01-25T06:40:21;11.73;;;3.30;;
16820;SDS011;8527;49.740;6.604;2024-01-25T06:45:24;15.32;;;3.95;;
16820;SDS011;8527;49.740;6.604;2024-01-25T06:50:25;14.85;;;3.20;;
16820;SDS011;8527;49.740;6.604;2024-01-25T06:55:24;20.45;;;4.13;;
16820;SDS011;8527;49.740;6.604;2024-01-25T07:00:25;15.35;;;3.60;;
16820;SDS011;8527;49.740;6.604;2024-01-25T07:05:29;14.00;;;2.90;;
16820;SDS011;8527;49.740;6.604;2024-01-25T07:10:29;15.27;;;2.97;;
16820;SDS011;8527;49.740;6.604;2024-01-25T07:15:33;13.70;;;3.78;;
16820;SDS011;8527;49.740;6.604;2024-01-25T07:20:31;22.70;;;6.65;;
16820;SDS011;8527;49.740;6.604;2024-01-25T07:25:30;25.70;;;6.10;;
16820;SDS011;8527;49.740;6.604;2024-01-25T07:30:28;20.63;;;6.68;;
16820;SDS011;8527;49.740;6.604;2024-01-25T07:35:29;27.27;;;7.10;;
16820;SDS011;8527;49.740;6.604;2024-01-25T07:40:43;15.77;;;4.63;;
16820;SDS011;8527;49.740;6.604;2024-01-25T07:45:42;26.67;;;6.20;;
16820;SDS011;8527;49.740;6.604;2024-01-25T07:50:45;23.70;;;7.18;;
16820;SDS011;8527;49.740;6.604;2024-01-25T07:55:44;25.50;;;6.18;;
16820;SDS011;8527;49.740;6.604;2024-01-25T08:00:43;19.30;;;5.75;;
16820;SDS011;8527;49.740;6.604;2024-01-25T08:05:47;22.38;;;4.03;;
16820;SDS011;8527;49.740;6.604;2024-01-25T08:10:52;21.00;;;4.43;;
16820;SDS011;8527;49.740;6.604;2024-01-25T08:15:50;32.67;;;9.65;;
16820;SDS011;8527;49.740;6.604;2024-01-25T08:20:53;35.15;;;10.88;;
16820;SDS011;8527;49.740;6.604;2024-01-25T08:25:51;27.13;;;10.00;;
16820;SDS011;8527;49.740;6.604;2024-01-25T08:30:53;21.38;;;8.95;;
16820;SDS011;8527;49.740;6.604;2024-01-25T08:35:56;27.55;;;7.75;;
16820;SDS011;8527;49.740;6.604;2024-01-25T08:41:01;27.10;;;8.13;;
16820;SDS011;8527;49.740;6.604;2024-01-25T08:46:00;26.65;;;7.90;;
16820;SDS011;8527;49.740;6.604;2024-01-25T08:51:02;24.48;;;6.60;;
16820;SDS011;8527;49.740;6.604;2024-01-25T08:56:02;16.90;;;5.70;;
16820;SDS011;8527;49.740;6.604;2024-01-25T09:01:00;29.90;;;9.07;;
16820;SDS011;8527;49.740;6.604;2024-01-25T09:06:02;29.15;;;11.10;;
16820;SDS011;8527;49.740;6.604;2024-01-25T09:11:02;28.58;;;6.18;;
16820;SDS011;8527;49.740;6.604;2024-01-25T09:16:00;20.63;;;6.10;;
16820;SDS011;8527;49.740;6.604;2024-01-25T09:21:01;22.65;;;5.65;;
16820;SDS011;8527;49.740;6.604;2024-01-25T09:26:01;28.00;;;5.90;;
16820;SDS011;8527;49.740;6.604;2024-01-25T09:31:02;17.52;;;5.40;;
16820;SDS011;8527;49.740;6.604;2024-01-25T09:36:03;30.20;;;5.97;;
16820;SDS011;8527;49.740;6.604;2024-01-25T09:41:02;34.38;;;5.22;;
16820;SDS011;8527;49.740;6.604;2024-01-25T09:46:01;25.73;;;5.75;;
16820;SDS011;8527;49.740;6.604;2024-01-25T09:51:03;29.63;;;5.47;;
16820;SDS011;8527;49.740;6.604;2024-01-25T09:56:03;26.45;;;5.10;;
16820;SDS011;8527;49.740;6.604;2024-01-25T10:01:05;24.70;;;4.80;;
16820;SDS011;8527;49.740;6.604;2024-01-25T10:06:10;31.13;;;5.57;;
16820;SDS011;8527;49.740;6.604;2024-01-25T10:11:09;20.23;;;5.25;;
16820;SDS011;8527;49.740;6.604;2024-01-25T10:16:10;28.60;;;4.85;;
16820;SDS011;8527;49.740;6.604;2024-01-25T10:21:12;31.33;;;5.60;;
16820;SDS011;8527;49.740;6.604;2024-01-25T10:26:12;23.70;;;4.95;;
16820;SDS011;8527;49.740;6.604;2024-01-25T10:31:11;28.17;;;5.20;;
16820;SDS011;8527;49.740;6.604;2024-01-25T10:36:12;29.75;;;5.85;;
16820;SDS011;8527;49.740;6.604;2024-01-25T10:41:12;29.00;;;5.03;;
16820;SDS011;8527;49.740;6.604;2024-01-25T10:46:12;23.77;;;5.25;;
16820;SDS011;8527;49.740;6.604;2024-01-25T10:51:13;26.25;;;5.10;;
16820;SDS011;8527;49.740;6.604;2024-01-25T10:56:13;25.98;;;5.22;;
16820;SDS011;8527;49.740;6.604;2024-01-25T11:01:16;23.50;;;4.55;;
16820;SDS011;8527;49.740;6.604;2024-01-25T11:06:21;25.65;;;5.10;;
16820;SDS011;8527;49.740;6.604;2024-01-25T11:11:20;23.98;;;4.35;;
16820;SDS011;8527;49.740;6.604;2024-01-25T11:16:27;28.80;;;5.13;;
16820;SDS011;8527;49.740;6.604;2024-01-25T11:21:37;30.83;;;5.63;;
16820;SDS011;8527;49.740;6.604;2024-01-25T11:26:40;30.23;;;4.75;;
16820;SDS011;8527;49.740;6.604;2024-01-25T11:31:40;31.77;;;5.90;;
16820;SDS011;8527;49.740;6.604;2024-01-25T11:36:42;33.55;;;4.95;;
16820;SDS011;8527;49.740;6.604;2024-01-25T11:41:41;23.65;;;4.90;;
16820;SDS011;8527;49.740;6.604;2024-01-25T11:46:40;27.98;;;4.70;;
16820;SDS011;8527;49.740;6.604;2024-01-25T11:51:42;25.55;;;4.78;;
16820;SDS011;8527;49.740;6.604;2024-01-25T11:56:40;30.35;;;4.40;;
16820;SDS011;8527;49.740;6.604;2024-01-25T12:01:43;19.90;;;3.90;;
16820;SDS011;8527;49.740;6.604;2024-01-25T12:06:44;24.73;;;4.38;;
16820;SDS011;8527;49.740;6.604;2024-01-25T12:11:48;24.20;;;4.28;;
16820;SDS011;8527;49.740;6.604;2024-01-25T12:16:47;23.27;;;4.57;;
16820;SDS011;8527;49.740;6.604;2024-01-25T12:21:48;24.13;;;3.70;;
16820;SDS011;8527;49.740;6.604;2024-01-25T12:26:47;37.72;;;4.65;;
16820;SDS011;8527;49.740;6.604;2024-01-25T12:31:46;20.30;;;4.13;;
16820;SDS011;8527;49.740;6.604;2024-01-25T12:36:44;26.85;;;5.43;;
16820;SDS011;8527;49.740;6.604;2024-01-25T12:41:46;29.35;;;5.10;;
16820;SDS011;8527;49.740;6.604;2024-01-25T12:46:44;26.83;;;4.80;;
16820;SDS011;8527;49.740;6.604;2024-01-25T12:51:43;24.45;;;4.15;;
16820;SDS011;8527;49.740;6.604;2024-01-25T12:56:41;24.98;;;4.75;;
16820;SDS011;8527;49.740;6.604;2024-01-25T13:01:42;26.25;;;4.15;;
16820;SDS011;8527;49.740;6.604;2024-01-25T13:06:41;29.45;;;4.20;;
16820;SDS011;8527;49.740;6.604;2024-01-25T13:11:39;25.40;;;5.30;;
16820;SDS011;8527;49.740;6.604;2024-01-25T13:16:38;26.33;;;5.00;;
16820;SDS011;8527;49.740;6.604;2024-01-25T13:21:40;29.25;;;5.15;;
16820;SDS011;8527;49.740;6.604;2024-01-25T13:26:39;26.63;;;4.75;;
16820;SDS011;8527;49.740;6.604;2024-01-25T13:31:37;26.92;;;4.85;;
16820;SDS011;8527;49.740;6.604;2024-01-25T13:36:40;26.10;;;5.43;;
16820;SDS011;8527;49.740;6.604;2024-01-25T13:41:39;22.02;;;4.40;;
16820;SDS011;8527;49.740;6.604;2024-01-25T13:46:37;22.13;;;4.82;;
16820;SDS011;8527;49.740;6.604;2024-01-25T13:51:35;20.15;;;4.95;;
16820;SDS011;8527;49.740;6.604;2024-01-25T13:56:39;30.35;;;6.18;;
16820;SDS011;8527;49.740;6.604;2024-01-25T14:01:38;22.98;;;5.10;;
16820;SDS011;8527;49.740;6.604;2024-01-25T14:06:37;27.48;;;6.05;;
16820;SDS011;8527;49.740;6.604;2024-01-25T14:11:36;27.45;;;5.90;;
16820;SDS011;8527;49.740;6.604;2024-01-25T14:16:40;20.52;;;6.40;;
16820;SDS011;8527;49.740;6.604;2024-01-25T14:21:39;15.50;;;4.80;;
16820;SDS011;8527;49.740;6.604;2024-01-25T14:26:37;19.85;;;4.90;;
16820;SDS011;8527;49.740;6.604;2024-01-25T14:31:36;19.73;;;5.47;;
16820;SDS011;8527;49.740;6.604;2024-01-25T14:36:38;16.67;;;5.13;;
16820;SDS011;8527;49.740;6.604;2024-01-25T14:41:36;22.17;;;5.45;;
16820;SDS011;8527;49.740;6.604;2024-01-25T14:46:35;12.32;;;4.22;;
16820;SDS011;8527;49.740;6.604;2024-01-25T14:51:33;14.43;;;5.00;;
16820;SDS011;8527;49.740;6.604;2024-01-25T14:56:36;16.83;;;4.55;;
16820;SDS011;8527;49.740;6.604;2024-01-25T15:01:35;18.58;;;4.78;;
16820;SDS011;8527;49.740;6.604;2024-01-25T15:06:33;12.43;;;4.57;;
16820;SDS011;8527;49.740;6.604;2024-01-25T15:11:37;16.00;;;4.53;;
16820;SDS011;8527;49.740;6.604;2024-01-25T15:16:37;12.13;;;4.30;;
16820;SDS011;8527;49.740;6.604;2024-01-25T15:21:36;12.23;;;4.30;;
16820;SDS011;8527;49.740;6.604;2024-01-25T15:26:39;9.15;;;3.45;;
16820;SDS011;8527;49.740;6.604;2024-01-25T15:31:41;9.10;;;3.30;;
16820;SDS011;8527;49.740;6.604;2024-01-25T15:36:39;6.63;;;3.45;;
16820;SDS011;8527;49.740;6.604;2024-01-25T15:41:42;8.85;;;3.22;;
16820;SDS011;8527;49.740;6.604;2024-01-25T15:46:44;6.63;;;3.58;;
16820;SDS011;8527;49.740;6.604;2024-01-25T15:51:43;7.90;;;3.42;;
16820;SDS011;8527;49.740;6.604;2024-01-25T15:56:44;8.77;;;3.10;;
16820;SDS011;8527;49.740;6.604;2024-01-25T16:01:43;9.45;;;2.90;;
16820;SDS011;8527;49.740;6.604;2024-01-25T16:06:42;5.97;;;2.85;;
16820;SDS011;8527;49.740;6.604;2024-01-25T16:11:40;10.95;;;3.33;;
16820;SDS011;8527;49.740;6.604;2024-01-25T16:16:41;10.38;;;4.32;;
16820;SDS011;8527;49.740;6.604;2024-01-25T16:21:43;7.85;;;3.38;;
16820;SDS011;8527;49.740;6.604;2024-01-25T16:26:41;12.27;;;4.90;;
16820;SDS011;8527;49.740;6.604;2024-01-25T16:31:42;12.88;;;5.80;;
16820;SDS011;8527;49.740;6.604;2024-01-25T16:51:59;8.63;;;4.00;;
16820;SDS011;8527;49.740;6.604;2024-01-25T16:57:00;8.02;;;4.68;;
16820;SDS011;8527;49.740;6.604;2024-01-25T17:01:58;7.55;;;3.35;;
16820;SDS011;8527;49.740;6.604;2024-01-25T17:07:00;8.80;;;4.45;;
16820;SDS011;8527;49.740;6.604;2024-01-25T17:12:05;7.43;;;4.10;;
16820;SDS011;8527;49.740;6.604;2024-01-25T17:17:06;8.43;;;4.88;;
16820;SDS011;8527;49.740;6.604;2024-01-25T17:22:07;8.00;;;4.40;;
16820;SDS011;8527;49.740;6.604;2024-01-25T17:27:08;12.20;;;6.30;;
16820;SDS011;8527;49.740;6.604;2024-01-25T17:32:07;8.40;;;4.88;;
16820;SDS011;8527;49.740;6.604;2024-01-25T17:37:08;8.38;;;4.65;;
16820;SDS011;8527;49.740;6.604;2024-01-25T17:42:09;8.65;;;4.72;;
16820;SDS011;8527;49.740;6.604;2024-01-25T17:47:17;7.38;;;4.90;;
16820;SDS011;8527;49.740;6.604;2024-01-25T17:52:18;10.32;;;5.45;;
16820;SDS011;8527;49.740;6.604;2024-01-25T17:57:17;9.70;;;4.72;;
16820;SDS011;8527;49.740;6.604;2024-01-25T18:02:15;10.10;;;5.00;;
16820;SDS011;8527;49.740;6.604;2024-01-25T18:07:19;8.30;;;5.03;;
16820;SDS011;8527;49.740;6.604;2024-01-25T18:12:18;25.95;;;14.02;;
16820;SDS011;8527;49.740;6.604;2024-01-25T18:17:16;16.45;;;8.68;;
16820;SDS011;8527;49.740;6.604;2024-01-25T18:22:15;21.73;;;13.13;;
16820;SDS011;8527;49.740;6.604;2024-01-25T18:27:16;13.18;;;8.43;;
16820;SDS011;8527;49.740;6.604;2024-01-25T18:32:17;7.63;;;4.68;;
16820;SDS011;8527;49.740;6.604;2024-01-25T18:37:16;27.75;;;15.23;;
16820;SDS011;8527;49.740;6.604;2024-01-25T18:42:17;15.07;;;8.75;;
16820;SDS011;8527;49.740;6.604;2024-01-25T18:47:16;14.60;;;6.88;;
16820;SDS011;8527;49.740;6.604;2024-01-25T18:52:17;14.15;;;8.25;;
16820;SDS011;8527;49.740;6.604;2024-01-25T18:57:18;21.27;;;13.73;;
16820;SDS011;8527;49.740;6.604;2024-01-25T19:02:17;18.60;;;12.20;;
16820;SDS011;8527;49.740;6.604;2024-01-25T19:07:19;20.08;;;15.07;;
16820;SDS011;8527;49.740;6.604;2024-01-25T19:12:22;18.85;;;9.65;;
16820;SDS011;8527;49.740;6.604;2024-01-25T19:17:21;16.98;;;12.27;;
16820;SDS011;8527;49.740;6.604;2024-01-25T19:22:19;13.07;;;8.75;;
16820;SDS011;8527;49.740;6.604;2024-01-25T19:27:18;18.30;;;11.07;;
16820;SDS011;8527;49.740;6.604;2024-01-25T19:32:19;12.98;;;7.57;;
16820;SDS011;8527;49.740;6.604;2024-01-25T19:37:18;15.25;;;7.05;;
16820;SDS011;8527;49.740;6.604;2024-01-25T19:42:17;12.30;;;6.95;;
16820;SDS011;8527;49.740;6.604;2024-01-25T19:47:15;15.60;;;7.68;;
16820;SDS011;8527;49.740;6.604;2024-01-25T19:52:16;11.40;;;7.10;;
16820;SDS011;8527;49.740;6.604;2024-01-25T19:57:15;13.60;;;7.47;;
16820;SDS011;8527;49.740;6.604;2024-01-25T20:02:14;12.75;;;7.90;;
16820;SDS011;8527;49.740;6.604;2024-01-25T20:07:13;14.68;;;7.95;;
16820;SDS011;8527;49.740;6.604;2024-01-25T20:12:15;13.43;;;8.25;;
16820;SDS011;8527;49.740;6.604;2024-01-25T20:17:13;18.23;;;10.18;;
16820;SDS011;8527;49.740;6.604;2024-01-25T20:22:13;24.17;;;10.82;;
16820;SDS011;8527;49.740;6.604;2024-01-25T20:27:14;33.10;;;15.18;;
16820;SDS011;8527;49.740;6.604;2024-01-25T20:32:12;19.70;;;10.10;;
16820;SDS011;8527;49.740;6.604;2024-01-25T20:37:11;19.05;;;10.35;;
16820;SDS011;8527;49.740;6.604;2024-01-25T20:42:10;12.63;;;7.43;;
16820;SDS011;8527;49.740;6.604;2024-01-25T20:47:14;11.88;;;6.65;;
16820;SDS011;8527;49.740;6.604;2024-01-25T20:52:13;12.13;;;7.22;;
16820;SDS011;8527;49.740;6.604;2024-01-25T20:57:11;12.63;;;6.20;;
16820;SDS011;8527;49.740;6.604;2024-01-25T21:02:10;15.32;;;8.05;;
16820;SDS011;8527;49.740;6.604;2024-01-25T21:07:12;13.07;;;7.15;;
16820;SDS011;8527;49.740;6.604;2024-01-25T21:12:11;14.45;;;6.68;;
16820;SDS011;8527;49.740;6.604;2024-01-25T21:17:10;13.93;;;7.80;;
16820;SDS011;8527;49.740;6.604;2024-01-25T21:22:11;14.77;;;7.03;;
16820;SDS011;8527;49.740;6.604;2024-01-25T21:27:18;14.55;;;7.80;;
16820;SDS011;8527;49.740;6.604;2024-01-25T21:32:17;12.88;;;6.65;;
16820;SDS011;8527;49.740;6.604;2024-01-25T21:37:18;13.05;;;7.18;;
16820;SDS011;8527;49.740;6.604;2024-01-25T21:42:16;11.35;;;6.65;;
16820;SDS011;8527;49.740;6.604;2024-01-25T21:47:15;13.50;;;7.00;;
16820;SDS011;8527;49.740;6.604;2024-01-25T21:52:13;20.08;;;8.48;;
16820;SDS011;8527;49.740;6.604;2024-01-25T21:57:14;24.55;;;11.25;;
16820;SDS011;8527;49.740;6.604;2024-01-25T22:02:12;16.45;;;8.05;;
16820;SDS011;8527;49.740;6.604;2024-01-25T22:07:11;11.15;;;6.13;;
16820;SDS011;8527;49.740;6.604;2024-01-25T22:12:09;10.73;;;6.03;;
16820;SDS011;8527;49.740;6.604;2024-01-25T22:17:10;11.50;;;5.97;;
16820;SDS011;8527;49.740;6.604;2024-01-25T22:22:09;7.93;;;5.30;;
16820;SDS011;8527;49.740;6.604;2024-01-25T22:27:07;10.43;;;5.70;;
16820;SDS011;8527;49.740;6.604;2024-01-25T22:32:05;10.40;;;5.35;;
16820;SDS011;8527;49.740;6.604;2024-01-25T22:37:06;11.50;;;5.50;;
16820;SDS011;8527;49.740;6.604;2024-01-25T22:42:05;10.07;;;5.53;;
16820;SDS011;8527;49.740;6.604;2024-01-25T22:47:04;9.82;;;5.97;;
16820;SDS011;8527;49.740;6.604;2024-01-25T22:52:03;10.45;;;6.05;;
16820;SDS011;8527;49.740;6.604;2024-01-25T22:57:04;8.40;;;5.18;;
16820;SDS011;8527;49.740;6.604;2024-01-25T23:02:03;12.10;;;5.93;;
16820;SDS011;8527;49.740;6.604;2024-01-25T23:07:07;13.15;;;6.25;;
16820;SDS011;8527;49.740;6.604;2024-01-25T23:12:06;14.98;;;7.00;;
16820;SDS011;8527;49.740;6.604;2024-01-25T23:17:07;12.15;;;6.35;;
16820;SDS011;8527;49.740;6.604;2024-01-25T23:22:08;22.55;;;7.63;;
16820;SDS011;8527;49.740;6.604;2024-01-25T23:27:06;14.80;;;7.25;;
16820;SDS011;8527;49.740;6.604;2024-01-25T23:32:07;24.40;;;10.13;;
16820;SDS011;8527;49.740;6.604;2024-01-25T23:37:08;15.88;;;7.18;;
16820;SDS011;8527;49.740;6.604;2024-01-25T23:42:07;14.13;;;6.10;;
16820;SDS011;8527;49.740;6.604;2024-01-25T23:47:05;11.68;;;6.88;;
16820;SDS011;8527;49.740;6.604;2024-01-25T23:52:04;13.63;;;6.80;;
16820;SDS011;8527;49.740;6.604;2024-01-25T23:57:08;12.95;;;5.93;;
